createdAt,value
2017-11-09T00:02:01.820Z,42.37
2017-11-09T00:04:35.055Z,40.73
2017-11-09T00:07:03.381Z,42.37
2017-11-09T00:09:30.913Z,42.03
2017-11-09T00:11:58.453Z,41.78
2017-11-09T00:14:26.052Z,46.53
2017-11-09T00:16:53.592Z,45.27
2017-11-09T00:19:21.128Z,53.93
2017-11-09T00:21:49.465Z,46.43
2017-11-09T00:24:17.000Z,48.60
2017-11-09T00:26:44.532Z,47.27
2017-11-09T00:29:12.617Z,48.43
2017-11-09T00:31:40.156Z,53.47
2017-11-09T00:34:08.465Z,48.67
2017-11-09T00:36:36.056Z,48.67
2017-11-09T00:39:03.592Z,44.70
2017-11-09T00:41:31.143Z,50.85
2017-11-09T00:43:58.709Z,55.87
2017-11-09T00:46:26.240Z,54.65
2017-11-09T00:48:53.772Z,53.23
2017-11-09T00:51:21.345Z,52.80
2017-11-09T00:53:49.653Z,54.70
2017-11-09T00:56:17.183Z,51.27
2017-11-09T00:58:45.532Z,48.00
2017-11-09T01:01:24.842Z,50.08
2017-11-09T01:06:28.584Z,49.63
2017-11-09T01:08:56.120Z,45.30
2017-11-09T01:11:23.647Z,44.85
2017-11-09T01:13:52.002Z,46.60
2017-11-09T01:16:19.544Z,43.22
2017-11-09T01:18:47.079Z,45.10
2017-11-09T01:21:17.215Z,41.33
2017-11-09T01:23:44.751Z,38.07
2017-11-09T01:26:12.304Z,35.07
2017-11-09T01:28:39.864Z,35.60
2017-11-09T01:31:07.836Z,34.70
2017-11-09T01:33:35.385Z,34.55
2017-11-09T01:36:02.969Z,34.10
2017-11-09T01:38:30.509Z,36.57
2017-11-09T01:40:58.056Z,32.30
2017-11-09T01:43:25.624Z,38.80
2017-11-09T01:45:53.164Z,36.63
2017-11-09T01:48:20.692Z,36.57
2017-11-09T01:50:48.257Z,35.73
2017-11-09T01:53:16.461Z,32.15
2017-11-09T01:55:44.759Z,34.03
2017-11-09T01:58:12.356Z,31.43
2017-11-09T02:00:39.893Z,27.67
2017-11-09T02:03:07.421Z,40.65
2017-11-09T02:05:35.829Z,34.00
2017-11-09T02:08:03.372Z,34.40
2017-11-09T02:10:31.676Z,34.10
2017-11-09T02:12:59.235Z,33.73
2017-11-09T02:15:26.767Z,35.60
2017-11-09T02:17:54.291Z,38.27
2017-11-09T02:20:21.880Z,34.90
2017-11-09T02:22:49.412Z,33.78
2017-11-09T02:25:16.948Z,36.40
2017-11-09T02:27:44.511Z,30.80
2017-11-09T02:30:12.036Z,30.17
2017-11-09T02:32:39.684Z,30.17
2017-11-09T02:35:08.029Z,31.13
2017-11-09T02:37:35.556Z,34.17
2017-11-09T02:40:03.088Z,35.60
2017-11-09T02:42:30.698Z,36.67
2017-11-09T02:44:58.232Z,36.40
2017-11-09T02:47:25.756Z,37.17
2017-11-09T02:49:54.076Z,36.10
2017-11-09T02:52:22.376Z,35.33
2017-11-09T02:54:49.910Z,40.10
2017-11-09T02:57:17.473Z,38.97
2017-11-09T02:59:45.016Z,31.63
2017-11-09T03:02:12.557Z,40.73
2017-11-09T03:04:40.912Z,36.53
2017-11-09T03:07:08.447Z,36.70
2017-11-09T03:09:35.977Z,38.60
2017-11-09T03:12:03.537Z,41.87
2017-11-09T03:14:31.067Z,35.40
2017-11-09T03:16:59.365Z,42.00
2017-11-09T03:19:26.915Z,37.90
2017-11-09T03:21:54.453Z,38.25
2017-11-09T03:24:22.753Z,40.65
2017-11-09T03:26:50.777Z,36.40
2017-11-09T03:29:18.308Z,43.43
2017-11-09T03:31:45.840Z,39.13
2017-11-09T03:34:14.858Z,38.42
2017-11-09T03:36:42.413Z,42.10
2017-11-09T03:39:09.946Z,38.17
2017-11-09T03:41:38.277Z,46.88
2017-11-09T03:44:05.811Z,42.00
2017-11-09T03:46:33.349Z,37.40
2017-11-09T03:49:00.931Z,42.23
2017-11-09T03:51:28.468Z,39.03
2017-11-09T03:53:56.764Z,39.70
2017-11-09T03:56:24.320Z,36.85
2017-11-09T03:58:51.857Z,39.97
2017-11-09T04:01:19.400Z,41.08
2017-11-09T04:03:46.974Z,46.03
2017-11-09T04:06:24.609Z,36.03
2017-11-09T04:13:04.003Z,43.83
2017-11-09T04:15:31.539Z,38.67
2017-11-09T04:17:59.085Z,39.80
2017-11-09T04:20:26.637Z,42.87
2017-11-09T04:22:54.171Z,43.37
2017-11-09T04:25:21.702Z,43.47
2017-11-09T04:27:49.264Z,41.97
2017-11-09T04:30:16.792Z,40.97
2017-11-09T04:32:44.326Z,41.30
2017-11-09T04:35:12.569Z,38.30
2017-11-09T04:37:40.105Z,41.20
2017-11-09T04:40:07.635Z,45.47
2017-11-09T04:42:35.199Z,42.67
2017-11-09T04:45:02.728Z,40.80
2017-11-09T04:47:31.023Z,38.37
2017-11-09T04:49:58.585Z,41.87
2017-11-09T04:52:26.121Z,41.77
2017-11-09T04:54:53.657Z,45.53
2017-11-09T04:57:21.252Z,41.60
2017-11-09T04:59:49.553Z,41.80
2017-11-09T05:02:17.086Z,44.43
2017-11-09T05:04:45.421Z,48.47
2017-11-09T05:07:14.551Z,49.90
2017-11-09T05:09:42.081Z,62.60
2017-11-09T05:12:09.680Z,55.20
2017-11-09T05:14:37.972Z,56.00
2017-11-09T05:17:05.513Z,47.47
2017-11-09T05:19:33.864Z,51.33
2017-11-09T05:22:01.396Z,44.08
2017-11-09T05:24:28.933Z,38.20
2017-11-09T05:26:56.496Z,45.42
2017-11-09T05:29:24.033Z,53.50
2017-11-09T05:31:52.341Z,51.42
2017-11-09T05:34:19.913Z,46.85
2017-11-09T05:36:47.838Z,40.78
2017-11-09T05:39:17.165Z,39.17
2017-11-09T05:41:44.748Z,46.67
2017-11-09T05:44:12.281Z,41.77
2017-11-09T05:46:39.821Z,54.77
2017-11-09T05:49:07.382Z,59.27
2017-11-09T05:51:34.924Z,51.87
2017-11-09T05:54:02.455Z,41.87
2017-11-09T05:56:30.017Z,47.37
2017-11-09T05:58:57.549Z,44.17
2017-11-09T06:01:25.080Z,41.80
2017-11-09T06:03:52.666Z,43.60
2017-11-09T06:06:20.205Z,47.33
2017-11-09T06:08:48.501Z,41.90
2017-11-09T06:11:17.200Z,47.50
2017-11-09T06:13:44.737Z,42.13
2017-11-09T06:16:12.272Z,39.90
2017-11-09T06:18:39.833Z,38.90
2017-11-09T06:21:08.137Z,43.00
2017-11-09T06:23:35.677Z,41.20
2017-11-09T06:26:04.020Z,37.10
2017-11-09T06:28:31.553Z,38.10
2017-11-09T06:30:59.858Z,40.47
2017-11-09T06:33:27.444Z,42.97
2017-11-09T06:35:55.743Z,42.33
2017-11-09T06:38:23.700Z,42.10
2017-11-09T06:40:51.269Z,39.17
2017-11-09T06:43:18.804Z,43.47
2017-11-09T06:45:47.114Z,41.60
2017-11-09T06:48:16.457Z,44.33
2017-11-09T06:50:43.997Z,47.63
2017-11-09T06:53:11.535Z,43.80
2017-11-09T06:55:39.088Z,40.53
2017-11-09T06:58:06.628Z,38.53
2017-11-09T07:00:34.932Z,34.45
2017-11-09T07:03:02.500Z,34.38
2017-11-09T07:05:30.056Z,35.60
2017-11-09T07:07:57.587Z,36.83
2017-11-09T07:10:25.181Z,34.30
2017-11-09T07:12:52.726Z,39.43
2017-11-09T07:15:20.264Z,38.63
2017-11-09T07:17:47.828Z,41.47
2017-11-09T07:20:16.453Z,44.08
2017-11-09T07:22:44.000Z,40.87
2017-11-09T07:25:11.616Z,44.50
2017-11-09T07:27:39.153Z,44.63
2017-11-09T07:30:07.469Z,47.10
2017-11-09T07:32:35.097Z,41.13
2017-11-09T07:35:02.652Z,45.90
2017-11-09T07:37:30.956Z,42.27
2017-11-09T07:39:58.928Z,42.83
2017-11-09T07:42:26.690Z,50.13
2017-11-09T07:44:54.233Z,41.67
2017-11-09T07:47:21.853Z,41.25
2017-11-09T07:49:49.533Z,40.60
2017-11-09T07:52:17.873Z,39.80
2017-11-09T07:54:45.878Z,40.90
2017-11-09T07:57:24.649Z,41.28
2017-11-09T08:07:25.996Z,40.53
2017-11-09T08:09:53.529Z,42.88
2017-11-09T08:12:21.078Z,39.73
2017-11-09T08:14:48.658Z,39.03
2017-11-09T08:17:16.742Z,34.13
2017-11-09T08:19:44.290Z,36.43
2017-11-09T08:22:11.900Z,43.13
2017-11-09T08:24:39.905Z,43.70
2017-11-09T08:27:11.765Z,44.58
2017-11-09T08:29:40.662Z,40.10
2017-11-09T08:32:09.365Z,40.63
2017-11-09T08:34:36.942Z,39.70
2017-11-09T08:37:04.532Z,40.70
2017-11-09T08:39:32.080Z,42.03
2017-11-09T08:41:59.977Z,40.47
2017-11-09T08:44:27.539Z,37.33
2017-11-09T08:46:55.077Z,48.33
2017-11-09T08:49:22.736Z,42.50
2017-11-09T08:51:51.064Z,42.37
2017-11-09T08:54:18.641Z,38.50
2017-11-09T08:56:46.171Z,39.50
2017-11-09T08:59:24.930Z,39.55
2017-11-09T09:04:24.722Z,42.73
2017-11-09T09:06:52.289Z,34.40
2017-11-09T09:09:19.824Z,40.08
2017-11-09T09:11:47.380Z,39.03
2017-11-09T09:14:17.228Z,35.95
2017-11-09T09:16:44.776Z,36.73
2017-11-09T09:19:12.305Z,36.20
2017-11-09T09:21:40.544Z,45.80
2017-11-09T09:27:04.499Z,34.50
2017-11-09T09:29:47.719Z,37.00
2017-11-09T09:32:16.431Z,37.70
2017-11-09T09:34:50.717Z,33.07
2017-11-09T09:37:22.739Z,32.83
2017-11-09T09:39:51.283Z,30.13
2017-11-09T09:42:18.824Z,35.30
2017-11-09T09:44:46.389Z,31.73
2017-11-09T09:47:24.476Z,33.95
2017-11-09T09:52:23.528Z,34.60
2017-11-09T09:54:51.061Z,31.93
2017-11-09T09:57:18.601Z,31.52
2017-11-09T09:59:46.156Z,30.40
2017-11-09T10:02:16.304Z,30.73
2017-11-09T10:04:43.844Z,30.77
2017-11-09T10:07:12.173Z,30.15
2017-11-09T10:09:39.709Z,28.17
2017-11-09T10:12:07.258Z,27.80
2017-11-09T10:14:35.166Z,33.10
2017-11-09T10:17:02.700Z,32.73
2017-11-09T10:19:30.232Z,42.30
2017-11-09T10:21:57.806Z,31.40
2017-11-09T10:24:25.349Z,32.00
2017-11-09T10:26:53.748Z,27.13
2017-11-09T10:29:21.320Z,25.70
2017-11-09T10:31:48.879Z,27.33
2017-11-09T10:34:17.258Z,27.23
2017-11-09T10:36:44.885Z,29.83
2017-11-09T10:39:12.633Z,28.70
2017-11-09T10:41:40.169Z,30.20
2017-11-09T10:44:08.128Z,26.80
2017-11-09T10:46:35.665Z,24.77
2017-11-09T10:49:03.200Z,26.80
2017-11-09T10:51:30.765Z,30.52
2017-11-09T10:53:59.341Z,28.40
2017-11-09T10:56:27.640Z,26.47
2017-11-09T10:58:55.227Z,26.47
2017-11-09T11:01:24.028Z,25.98
2017-11-09T11:03:51.568Z,27.47
2017-11-09T11:06:19.133Z,28.33
2017-11-09T11:08:46.676Z,26.97
2017-11-09T11:11:15.500Z,32.67
2017-11-09T11:13:43.062Z,25.67
2017-11-09T11:16:10.601Z,31.80
2017-11-09T11:18:38.136Z,26.77
2017-11-09T11:21:05.721Z,25.80
2017-11-09T11:23:33.264Z,27.40
2017-11-09T11:26:00.808Z,28.90
2017-11-09T11:28:28.389Z,31.97
2017-11-09T11:30:55.961Z,31.80
2017-11-09T11:33:23.500Z,28.60
2017-11-09T11:35:51.056Z,36.97
2017-11-09T11:38:18.605Z,35.08
2017-11-09T11:40:46.925Z,31.13
2017-11-09T11:43:16.351Z,28.50
2017-11-09T11:45:44.254Z,30.87
2017-11-09T11:48:11.784Z,34.23
2017-11-09T11:50:39.343Z,35.40
2017-11-09T11:53:06.889Z,30.80
2017-11-09T11:55:34.420Z,25.95
2017-11-09T11:58:01.983Z,30.73
2017-11-09T12:00:29.549Z,30.85
2017-11-09T12:02:58.933Z,32.57
2017-11-09T12:05:28.178Z,31.17
2017-11-09T12:07:55.706Z,27.07
2017-11-09T12:10:24.008Z,30.80
2017-11-09T12:12:51.593Z,29.70
2017-11-09T12:15:19.128Z,30.37
2017-11-09T12:17:46.684Z,29.60
2017-11-09T12:20:25.390Z,28.55
2017-11-09T12:25:22.031Z,30.33
2017-11-09T12:27:49.634Z,29.60
2017-11-09T12:30:17.205Z,28.17
2017-11-09T12:32:44.745Z,30.67
2017-11-09T12:35:12.322Z,35.30
2017-11-09T12:37:39.857Z,29.40
2017-11-09T12:40:07.392Z,29.80
2017-11-09T12:42:35.729Z,31.23
2017-11-09T12:45:03.284Z,30.10
2017-11-09T12:47:31.391Z,27.50
2017-11-09T12:49:58.988Z,31.10
2017-11-09T12:52:26.533Z,28.77
2017-11-09T12:54:54.072Z,34.87
2017-11-09T12:57:21.630Z,37.07
2017-11-09T12:59:49.516Z,40.00
2017-11-09T13:02:19.601Z,36.83
2017-11-09T13:04:47.185Z,35.23
2017-11-09T13:07:16.441Z,30.10
2017-11-09T13:09:44.005Z,29.03
2017-11-09T13:12:11.773Z,26.73
2017-11-09T13:14:39.313Z,30.93
2017-11-09T13:17:06.852Z,28.20
2017-11-09T13:19:34.417Z,36.33
2017-11-09T13:22:01.992Z,34.30
2017-11-09T13:24:29.533Z,35.47
2017-11-09T13:26:57.091Z,40.73
2017-11-09T13:29:24.649Z,30.17
2017-11-09T13:31:52.192Z,31.37
2017-11-09T13:34:24.304Z,28.40
2017-11-09T13:36:51.873Z,29.87
2017-11-09T13:39:19.416Z,35.23
2017-11-09T13:41:46.994Z,35.53
2017-11-09T13:44:16.331Z,32.47
2017-11-09T13:46:44.717Z,41.03
2017-11-09T13:49:12.568Z,50.73
2017-11-09T13:51:40.108Z,33.17
2017-11-09T13:54:07.833Z,37.07
2017-11-09T13:56:35.431Z,39.85
2017-11-09T13:59:09.368Z,46.33
2017-11-09T14:01:37.718Z,34.30
2017-11-09T14:04:05.596Z,32.73
2017-11-09T14:06:39.374Z,33.10
2017-11-09T14:09:07.697Z,33.07
2017-11-09T14:11:35.265Z,50.83
2017-11-09T14:14:03.715Z,47.37
2017-11-09T14:16:31.278Z,42.23
2017-11-09T14:18:58.848Z,33.10
2017-11-09T14:21:26.460Z,32.73
2017-11-09T14:23:54.017Z,37.17
2017-11-09T14:26:21.574Z,39.20
2017-11-09T14:28:49.624Z,36.27
2017-11-09T14:31:17.958Z,38.27
2017-11-09T14:33:47.850Z,34.03
2017-11-09T14:36:20.313Z,36.60
2017-11-09T14:38:52.773Z,38.78
2017-11-09T14:41:21.069Z,40.10
2017-11-09T14:43:49.593Z,40.93
2017-11-09T14:46:17.273Z,37.30
2017-11-09T14:48:44.829Z,40.73
2017-11-09T14:51:12.685Z,32.70
2017-11-09T14:53:45.969Z,39.57
2017-11-09T14:56:33.027Z,46.35
2017-11-09T15:01:50.918Z,47.53
2017-11-09T15:04:18.469Z,36.63
2017-11-09T15:06:46.025Z,44.60
2017-11-09T15:09:14.545Z,40.12
2017-11-09T15:11:42.091Z,45.40
2017-11-09T15:14:09.661Z,36.00
2017-11-09T15:16:37.250Z,39.90
2017-11-09T15:19:04.805Z,38.63
2017-11-09T15:21:32.361Z,38.25
2017-11-09T15:23:59.949Z,35.87
2017-11-09T15:26:27.500Z,34.67
2017-11-09T15:28:55.848Z,33.50
2017-11-09T15:31:23.427Z,34.00
2017-11-09T15:33:50.995Z,40.10
2017-11-09T15:36:21.213Z,39.63
2017-11-09T15:38:48.908Z,59.63
2017-11-09T15:41:16.454Z,87.82
2017-11-09T15:43:44.170Z,74.03
2017-11-09T15:46:11.750Z,70.83
2017-11-09T15:48:39.286Z,68.47
2017-11-09T15:51:06.811Z,92.63
2017-11-09T15:53:34.690Z,106.15
2017-11-09T15:56:02.437Z,74.07
2017-11-09T15:58:30.115Z,67.60
2017-11-09T16:00:58.083Z,59.47
2017-11-09T16:03:25.748Z,63.55
2017-11-09T16:05:53.414Z,40.97
2017-11-09T16:08:20.991Z,59.70
2017-11-09T16:10:48.553Z,47.67
2017-11-09T16:13:16.461Z,39.75
2017-11-09T16:15:46.512Z,54.53
2017-11-09T16:18:15.492Z,69.10
2017-11-09T16:20:43.037Z,66.60
2017-11-09T16:23:11.550Z,67.73
2017-11-09T16:25:39.101Z,82.50
2017-11-09T16:28:07.745Z,103.80
2017-11-09T16:30:40.889Z,115.68
2017-11-09T16:33:08.439Z,124.77
2017-11-09T16:35:36.117Z,118.20
2017-11-09T16:38:03.678Z,104.67
2017-11-09T16:40:31.390Z,121.27
2017-11-09T16:42:59.796Z,115.50
2017-11-09T16:45:27.462Z,86.37
2017-11-09T16:47:55.303Z,101.13
2017-11-09T16:50:22.961Z,87.43
2017-11-09T16:52:56.297Z,80.33
2017-11-09T16:55:23.997Z,78.80
2017-11-09T16:57:51.794Z,103.20
2017-11-09T17:00:19.401Z,114.90
2017-11-09T17:02:48.027Z,144.93
2017-11-09T17:05:16.576Z,158.68
2017-11-09T17:07:44.183Z,208.03
2017-11-09T17:10:11.876Z,189.20
2017-11-09T17:12:39.471Z,158.80
2017-11-09T17:15:11.008Z,164.77
2017-11-09T17:17:38.608Z,152.17
2017-11-09T17:20:06.182Z,149.83
2017-11-09T17:22:34.713Z,146.50
2017-11-09T17:25:02.330Z,138.90
2017-11-09T17:27:30.853Z,131.13
2017-11-09T17:29:58.560Z,107.07
2017-11-09T17:32:26.338Z,106.83
2017-11-09T17:34:54.164Z,73.40
2017-11-09T17:37:21.903Z,60.80
2017-11-09T17:39:50.053Z,53.63
2017-11-09T17:42:19.229Z,49.13
2017-11-09T17:44:46.988Z,58.40
2017-11-09T17:47:24.811Z,48.57
2017-11-09T17:53:11.357Z,43.23
2017-11-09T17:55:39.124Z,54.00
2017-11-09T17:58:06.959Z,46.27
2017-11-09T18:00:34.708Z,40.80
2017-11-09T18:03:05.246Z,42.23
2017-11-09T18:05:32.804Z,41.05
2017-11-09T18:08:00.420Z,51.90
2017-11-09T18:10:27.969Z,35.87
2017-11-09T18:12:55.527Z,40.30
2017-11-09T18:15:23.116Z,47.77
2017-11-09T18:17:50.667Z,43.23
2017-11-09T18:20:18.215Z,46.73
2017-11-09T18:22:45.782Z,61.57
2017-11-09T18:25:24.403Z,42.92
2017-11-09T18:34:06.992Z,42.80
2017-11-09T18:36:34.537Z,45.23
2017-11-09T18:39:02.081Z,44.67
2017-11-09T18:41:29.640Z,42.20
2017-11-09T18:43:57.173Z,53.87
2017-11-09T18:46:25.034Z,41.42
2017-11-09T18:48:52.625Z,45.60
2017-11-09T18:51:20.216Z,36.30
2017-11-09T18:53:47.764Z,42.90
2017-11-09T18:56:18.258Z,40.95
2017-11-09T18:58:45.877Z,38.13
2017-11-09T19:01:15.373Z,39.63
2017-11-09T19:03:42.993Z,73.77
2017-11-09T19:06:10.520Z,99.45
2017-11-09T19:08:38.836Z,112.07
2017-11-09T19:11:06.395Z,68.47
2017-11-09T19:13:33.946Z,64.73
2017-11-09T19:16:01.515Z,64.37
2017-11-09T19:18:29.155Z,71.13
2017-11-09T19:20:56.725Z,64.67
2017-11-09T19:23:24.260Z,47.70
2017-11-09T19:25:52.589Z,44.20
2017-11-09T19:28:20.142Z,46.75
2017-11-09T19:30:47.680Z,37.17
2017-11-09T19:33:16.460Z,41.15
2017-11-09T19:35:44.008Z,39.90
2017-11-09T19:38:12.314Z,40.50
2017-11-09T19:40:39.900Z,35.53
2017-11-09T19:43:07.434Z,35.00
2017-11-09T19:45:34.968Z,38.47
2017-11-09T19:48:02.533Z,40.17
2017-11-09T19:50:30.076Z,40.57
2017-11-09T19:52:57.614Z,38.77
2017-11-09T19:55:25.169Z,51.43
2017-11-09T19:57:52.940Z,98.10
2017-11-09T20:00:20.476Z,71.90
2017-11-09T20:02:48.056Z,47.80
2017-11-09T20:05:16.477Z,47.08
2017-11-09T20:07:44.020Z,50.73
2017-11-09T20:10:12.341Z,47.53
2017-11-09T20:12:39.869Z,47.50
2017-11-09T20:15:07.422Z,46.13
2017-11-09T20:17:34.984Z,51.40
2017-11-09T20:20:02.521Z,47.53
2017-11-09T20:22:30.061Z,47.87
2017-11-09T20:24:57.657Z,45.40
2017-11-09T20:27:25.959Z,37.23
2017-11-09T20:29:53.492Z,43.70
2017-11-09T20:32:27.486Z,50.40
2017-11-09T20:34:55.120Z,57.40
2017-11-09T20:37:22.705Z,44.60
2017-11-09T20:39:57.299Z,43.03
2017-11-09T20:42:24.836Z,43.03
2017-11-09T20:44:52.383Z,55.57
2017-11-09T20:47:20.010Z,49.35
2017-11-09T20:49:47.558Z,44.40
2017-11-09T20:52:16.857Z,43.00
2017-11-09T20:54:50.277Z,46.40
2017-11-09T20:57:23.613Z,45.83
2017-11-09T20:59:53.327Z,39.90
2017-11-09T21:02:20.950Z,35.07
2017-11-09T21:04:49.313Z,44.08
2017-11-09T21:07:17.456Z,40.83
2017-11-09T21:09:45.096Z,42.87
2017-11-09T21:12:12.637Z,42.70
2017-11-09T21:14:40.972Z,44.80
2017-11-09T21:17:08.509Z,40.40
2017-11-09T21:19:36.218Z,40.60
2017-11-09T21:22:03.804Z,38.47
2017-11-09T21:24:32.121Z,38.97
2017-11-09T21:26:59.666Z,44.23
2017-11-09T21:29:27.268Z,39.63
2017-11-09T21:31:54.802Z,41.57
2017-11-09T21:34:22.357Z,38.57
2017-11-09T21:36:49.912Z,44.10
2017-11-09T21:39:18.225Z,40.50
2017-11-09T21:41:45.765Z,39.70
2017-11-09T21:44:15.383Z,39.30
2017-11-09T21:46:42.932Z,51.30
2017-11-09T21:49:10.553Z,40.55
2017-11-09T21:51:38.144Z,43.40
2017-11-09T21:54:05.798Z,40.87
2017-11-09T21:56:33.348Z,43.25
2017-11-09T21:59:00.981Z,44.70
2017-11-09T22:01:29.664Z,39.20
2017-11-09T22:03:57.197Z,39.10
2017-11-09T22:06:24.760Z,51.53
2017-11-09T22:08:52.305Z,43.77
2017-11-09T22:11:20.125Z,42.42
2017-11-09T22:13:47.705Z,42.43
2017-11-09T22:16:15.486Z,40.17
2017-11-09T22:18:43.029Z,39.60
2017-11-09T22:21:10.607Z,43.53
2017-11-09T22:23:38.161Z,42.40
2017-11-09T22:26:05.692Z,39.60
2017-11-09T22:28:33.274Z,50.12
2017-11-09T22:31:00.808Z,46.90
2017-11-09T22:33:29.110Z,43.37
2017-11-09T22:35:56.692Z,38.27
2017-11-09T22:38:24.241Z,39.80
2017-11-09T22:40:51.776Z,42.23
2017-11-09T22:43:19.345Z,37.97
2017-11-09T22:45:46.880Z,48.50
2017-11-09T22:48:14.697Z,45.70
2017-11-09T22:50:42.294Z,40.57
2017-11-09T22:53:10.605Z,40.40
2017-11-09T22:55:38.134Z,50.63
2017-11-09T22:58:10.301Z,44.50
2017-11-09T23:00:37.840Z,39.60
2017-11-09T23:03:05.872Z,39.60
2017-11-09T23:05:33.428Z,43.87
2017-11-09T23:08:00.960Z,38.17
2017-11-09T23:10:29.260Z,42.03
2017-11-09T23:12:56.821Z,43.80
2017-11-09T23:15:24.360Z,38.43
2017-11-09T23:17:51.888Z,37.23
2017-11-09T23:20:19.477Z,54.08
2017-11-09T23:22:47.791Z,42.57
2017-11-09T23:25:16.448Z,34.40
2017-11-09T23:27:44.009Z,35.47
2017-11-09T23:30:11.550Z,36.67
2017-11-09T23:32:39.849Z,40.37
2017-11-09T23:35:07.426Z,37.45
2017-11-09T23:37:34.960Z,36.70
2017-11-09T23:40:02.498Z,39.10
2017-11-09T23:42:30.243Z,33.40
2017-11-09T23:44:57.770Z,34.40
2017-11-09T23:47:25.304Z,36.90
2017-11-09T23:49:52.864Z,34.53
2017-11-09T23:52:21.166Z,35.50
2017-11-09T23:54:48.706Z,34.00
2017-11-09T23:57:16.498Z,37.27
2017-11-09T23:59:44.077Z,33.50
